sensor_id;sensor_type;location;lat;lon;timestamp;temperature;humidity
23681;DHT22;62915;50.832;4.462;2022-09-25T00:00:30;14.90;99.90
23681;DHT22;62915;50.832;4.462;2022-09-25T00:02:56;14.90;99.90
23681;DHT22;62915;50.832;4.462;2022-09-25T00:05:21;14.90;99.90
23681;DHT22;62915;50.832;4.462;2022-09-25T00:07:47;15.00;99.90
23681;DHT22;62915;50.832;4.462;2022-09-25T00:10:13;15.00;99.90
23681;DHT22;62915;50.832;4.462;2022-09-25T00:12:38;15.00;99.90
23681;DHT22;62915;50.832;4.462;2022-09-25T00:15:06;15.00;99.90
23681;DHT22;62915;50.832;4.462;2022-09-25T00:17:32;15.00;99.90
23681;DHT22;62915;50.832;4.462;2022-09-25T00:19:58;15.00;99.90
23681;DHT22;62915;50.832;4.462;2022-09-25T00:22:24;14.90;99.90
23681;DHT22;62915;50.832;4.462;2022-09-25T00:24:51;14.80;99.90
23681;DHT22;62915;50.832;4.462;2022-09-25T00:27:17;14.80;99.90
23681;DHT22;62915;50.832;4.462;2022-09-25T00:29:44;14.80;99.90
23681;DHT22;62915;50.832;4.462;2022-09-25T00:32:11;14.80;99.90
23681;DHT22;62915;50.832;4.462;2022-09-25T00:34:38;14.80;99.90
23681;DHT22;62915;50.832;4.462;2022-09-25T00:37:04;14.90;99.90
23681;DHT22;62915;50.832;4.462;2022-09-25T00:39:31;14.90;99.90
23681;DHT22;62915;50.832;4.462;2022-09-25T00:41:57;14.90;99.90
23681;DHT22;62915;50.832;4.462;2022-09-25T00:44:55;14.90;99.90
23681;DHT22;62915;50.832;4.462;2022-09-25T00:50:41;14.90;99.90
23681;DHT22;62915;50.832;4.462;2022-09-25T00:53:13;14.90;99.90
23681;DHT22;62915;50.832;4.462;2022-09-25T00:55:43;14.80;99.90
23681;DHT22;62915;50.832;4.462;2022-09-25T00:58:11;14.80;99.90
23681;DHT22;62915;50.832;4.462;2022-09-25T01:00:37;14.90;99.90
23681;DHT22;62915;50.832;4.462;2022-09-25T01:03:03;14.80;99.90
23681;DHT22;62915;50.832;4.462;2022-09-25T01:05:35;14.80;99.90
23681;DHT22;62915;50.832;4.462;2022-09-25T01:08:03;14.80;99.90
23681;DHT22;62915;50.832;4.462;2022-09-25T01:10:31;14.80;99.90
23681;DHT22;62915;50.832;4.462;2022-09-25T01:12:59;14.80;99.90
23681;DHT22;62915;50.832;4.462;2022-09-25T01:15:50;14.80;99.90
23681;DHT22;62915;50.832;4.462;2022-09-25T01:26:35;14.80;99.90
23681;DHT22;62915;50.832;4.462;2022-09-25T01:29:30;14.80;99.90
23681;DHT22;62915;50.832;4.462;2022-09-25T01:34:52;14.70;99.90
23681;DHT22;62915;50.832;4.462;2022-09-25T01:40:05;14.70;99.90
23681;DHT22;62915;50.832;4.462;2022-09-25T01:42:43;14.70;99.90
23681;DHT22;62915;50.832;4.462;2022-09-25T01:45:18;14.70;99.90
23681;DHT22;62915;50.832;4.462;2022-09-25T01:47:47;14.70;99.90
23681;DHT22;62915;50.832;4.462;2022-09-25T01:50:28;14.70;99.90
23681;DHT22;62915;50.832;4.462;2022-09-25T01:52:59;14.60;99.90
23681;DHT22;62915;50.832;4.462;2022-09-25T01:55:27;14.60;99.90
23681;DHT22;62915;50.832;4.462;2022-09-25T01:58:09;14.60;99.90
23681;DHT22;62915;50.832;4.462;2022-09-25T02:00:40;14.60;99.90
23681;DHT22;62915;50.832;4.462;2022-09-25T02:03:13;14.60;99.90
23681;DHT22;62915;50.832;4.462;2022-09-25T02:05:54;14.60;99.90
23681;DHT22;62915;50.832;4.462;2022-09-25T02:08:33;14.60;99.90
23681;DHT22;62915;50.832;4.462;2022-09-25T02:11:01;14.60;99.90
23681;DHT22;62915;50.832;4.462;2022-09-25T02:13:39;14.50;99.90
23681;DHT22;62915;50.832;4.462;2022-09-25T02:16:19;14.50;99.90
23681;DHT22;62915;50.832;4.462;2022-09-25T02:18:47;14.40;99.90
23681;DHT22;62915;50.832;4.462;2022-09-25T02:24:25;14.40;99.90
23681;DHT22;62915;50.832;4.462;2022-09-25T02:26:55;14.30;99.90
23681;DHT22;62915;50.832;4.462;2022-09-25T02:29:21;14.30;99.90
23681;DHT22;62915;50.832;4.462;2022-09-25T02:32:14;14.30;99.90
23681;DHT22;62915;50.832;4.462;2022-09-25T02:34:39;14.20;99.90
23681;DHT22;62915;50.832;4.462;2022-09-25T02:37:10;14.20;99.90
23681;DHT22;62915;50.832;4.462;2022-09-25T02:39:36;14.20;99.90
23681;DHT22;62915;50.832;4.462;2022-09-25T02:42:35;14.20;99.90
23681;DHT22;62915;50.832;4.462;2022-09-25T02:48:34;14.10;99.90
23681;DHT22;62915;50.832;4.462;2022-09-25T02:51:17;14.10;99.90
23681;DHT22;62915;50.832;4.462;2022-09-25T02:54:17;14.10;99.90
23681;DHT22;62915;50.832;4.462;2022-09-25T02:57:01;14.10;99.90
23681;DHT22;62915;50.832;4.462;2022-09-25T02:59:34;14.00;99.90
23681;DHT22;62915;50.832;4.462;2022-09-25T03:02:04;14.00;99.90
23681;DHT22;62915;50.832;4.462;2022-09-25T03:04:33;14.00;99.90
23681;DHT22;62915;50.832;4.462;2022-09-25T03:07:02;13.90;99.90
23681;DHT22;62915;50.832;4.462;2022-09-25T03:09:30;13.90;99.90
23681;DHT22;62915;50.832;4.462;2022-09-25T03:11:58;13.90;99.90
23681;DHT22;62915;50.832;4.462;2022-09-25T03:14:26;13.80;99.90
23681;DHT22;62915;50.832;4.462;2022-09-25T03:16:53;13.80;99.90
23681;DHT22;62915;50.832;4.462;2022-09-25T03:19:26;13.80;99.90
23681;DHT22;62915;50.832;4.462;2022-09-25T03:21:53;13.80;99.90
23681;DHT22;62915;50.832;4.462;2022-09-25T03:24:19;13.70;99.90
23681;DHT22;62915;50.832;4.462;2022-09-25T03:26:45;13.60;99.90
23681;DHT22;62915;50.832;4.462;2022-09-25T03:29:13;13.60;99.90
23681;DHT22;62915;50.832;4.462;2022-09-25T03:31:39;13.60;99.90
23681;DHT22;62915;50.832;4.462;2022-09-25T03:34:10;13.50;99.90
23681;DHT22;62915;50.832;4.462;2022-09-25T03:36:36;13.50;99.90
23681;DHT22;62915;50.832;4.462;2022-09-25T03:39:02;13.40;99.90
23681;DHT22;62915;50.832;4.462;2022-09-25T03:41:31;13.40;99.90
23681;DHT22;62915;50.832;4.462;2022-09-25T03:43:58;13.40;99.90
23681;DHT22;62915;50.832;4.462;2022-09-25T03:46:26;13.30;99.90
23681;DHT22;62915;50.832;4.462;2022-09-25T03:48:52;13.30;99.90
23681;DHT22;62915;50.832;4.462;2022-09-25T03:51:18;13.20;99.90
23681;DHT22;62915;50.832;4.462;2022-09-25T03:53:45;13.20;99.90
23681;DHT22;62915;50.832;4.462;2022-09-25T03:56:14;13.10;99.90
23681;DHT22;62915;50.832;4.462;2022-09-25T03:58:42;13.10;99.90
23681;DHT22;62915;50.832;4.462;2022-09-25T04:01:08;13.00;99.90
23681;DHT22;62915;50.832;4.462;2022-09-25T04:03:36;13.00;99.90
23681;DHT22;62915;50.832;4.462;2022-09-25T04:06:02;13.00;99.90
23681;DHT22;62915;50.832;4.462;2022-09-25T04:08:33;13.00;99.90
23681;DHT22;62915;50.832;4.462;2022-09-25T04:11:00;13.00;99.90
23681;DHT22;62915;50.832;4.462;2022-09-25T04:13:32;12.90;99.90
23681;DHT22;62915;50.832;4.462;2022-09-25T04:15:59;13.00;99.90
23681;DHT22;62915;50.832;4.462;2022-09-25T04:18:26;12.90;99.90
23681;DHT22;62915;50.832;4.462;2022-09-25T04:21:00;12.90;99.90
23681;DHT22;62915;50.832;4.462;2022-09-25T04:23:26;12.80;99.90
23681;DHT22;62915;50.832;4.462;2022-09-25T04:25:52;12.80;99.90
23681;DHT22;62915;50.832;4.462;2022-09-25T04:28:18;12.80;99.90
23681;DHT22;62915;50.832;4.462;2022-09-25T04:30:44;12.80;99.90
23681;DHT22;62915;50.832;4.462;2022-09-25T04:33:10;12.80;99.90
23681;DHT22;62915;50.832;4.462;2022-09-25T04:35:54;12.70;99.90
23681;DHT22;62915;50.832;4.462;2022-09-25T04:38:21;12.70;99.90
23681;DHT22;62915;50.832;4.462;2022-09-25T04:40:47;12.70;99.90
23681;DHT22;62915;50.832;4.462;2022-09-25T04:43:12;12.60;99.90
23681;DHT22;62915;50.832;4.462;2022-09-25T04:45:38;12.60;99.90
23681;DHT22;62915;50.832;4.462;2022-09-25T04:48:05;12.60;99.90
23681;DHT22;62915;50.832;4.462;2022-09-25T04:50:31;12.60;99.90
23681;DHT22;62915;50.832;4.462;2022-09-25T04:52:58;12.60;99.90
23681;DHT22;62915;50.832;4.462;2022-09-25T04:55:25;12.50;99.90
23681;DHT22;62915;50.832;4.462;2022-09-25T04:57:59;12.50;99.90
23681;DHT22;62915;50.832;4.462;2022-09-25T05:00:30;12.50;99.90
23681;DHT22;62915;50.832;4.462;2022-09-25T05:02:57;12.50;99.90
23681;DHT22;62915;50.832;4.462;2022-09-25T05:05:23;12.50;99.90
23681;DHT22;62915;50.832;4.462;2022-09-25T05:07:59;12.40;99.90
23681;DHT22;62915;50.832;4.462;2022-09-25T05:10:30;12.40;99.90
23681;DHT22;62915;50.832;4.462;2022-09-25T05:13:01;12.40;99.90
23681;DHT22;62915;50.832;4.462;2022-09-25T05:15:29;12.40;99.90
23681;DHT22;62915;50.832;4.462;2022-09-25T05:18:04;12.40;99.90
23681;DHT22;62915;50.832;4.462;2022-09-25T05:20:32;12.40;99.90
23681;DHT22;62915;50.832;4.462;2022-09-25T05:22:59;12.40;99.90
23681;DHT22;62915;50.832;4.462;2022-09-25T05:25:29;12.30;99.90
23681;DHT22;62915;50.832;4.462;2022-09-25T05:27:57;12.40;99.90
23681;DHT22;62915;50.832;4.462;2022-09-25T05:30:24;12.30;99.90
23681;DHT22;62915;50.832;4.462;2022-09-25T05:32:51;12.30;99.90
23681;DHT22;62915;50.832;4.462;2022-09-25T05:35:21;12.30;99.90
23681;DHT22;62915;50.832;4.462;2022-09-25T05:37:48;12.30;99.90
23681;DHT22;62915;50.832;4.462;2022-09-25T05:40:14;12.30;99.90
23681;DHT22;62915;50.832;4.462;2022-09-25T05:42:41;12.20;99.90
23681;DHT22;62915;50.832;4.462;2022-09-25T05:45:18;12.20;99.90
23681;DHT22;62915;50.832;4.462;2022-09-25T05:47:44;12.20;99.90
23681;DHT22;62915;50.832;4.462;2022-09-25T05:50:12;12.20;99.90
23681;DHT22;62915;50.832;4.462;2022-09-25T05:52:39;12.20;99.90
23681;DHT22;62915;50.832;4.462;2022-09-25T05:55:06;12.20;99.90
23681;DHT22;62915;50.832;4.462;2022-09-25T05:57:33;12.20;99.90
23681;DHT22;62915;50.832;4.462;2022-09-25T06:00:00;12.20;99.90
23681;DHT22;62915;50.832;4.462;2022-09-25T06:02:26;12.20;99.90
23681;DHT22;62915;50.832;4.462;2022-09-25T06:04:52;12.20;99.90
23681;DHT22;62915;50.832;4.462;2022-09-25T06:07:18;12.20;99.90
23681;DHT22;62915;50.832;4.462;2022-09-25T06:09:43;12.20;99.90
23681;DHT22;62915;50.832;4.462;2022-09-25T06:12:09;12.10;99.90
23681;DHT22;62915;50.832;4.462;2022-09-25T06:14:35;12.10;99.90
23681;DHT22;62915;50.832;4.462;2022-09-25T06:17:02;12.10;99.90
23681;DHT22;62915;50.832;4.462;2022-09-25T06:19:29;12.10;99.90
23681;DHT22;62915;50.832;4.462;2022-09-25T06:21:55;12.10;99.90
23681;DHT22;62915;50.832;4.462;2022-09-25T06:24:22;12.10;99.90
23681;DHT22;62915;50.832;4.462;2022-09-25T06:26:48;12.10;99.90
23681;DHT22;62915;50.832;4.462;2022-09-25T06:29:14;12.10;99.90
23681;DHT22;62915;50.832;4.462;2022-09-25T06:31:39;12.20;99.90
23681;DHT22;62915;50.832;4.462;2022-09-25T06:34:05;12.20;99.90
23681;DHT22;62915;50.832;4.462;2022-09-25T06:36:31;12.20;99.90
23681;DHT22;62915;50.832;4.462;2022-09-25T06:38:57;12.20;99.90
23681;DHT22;62915;50.832;4.462;2022-09-25T06:41:23;12.20;99.90
23681;DHT22;62915;50.832;4.462;2022-09-25T06:43:49;12.30;99.90
23681;DHT22;62915;50.832;4.462;2022-09-25T06:46:17;12.30;99.90
23681;DHT22;62915;50.832;4.462;2022-09-25T06:48:50;12.30;99.90
23681;DHT22;62915;50.832;4.462;2022-09-25T06:51:18;12.30;99.90
23681;DHT22;62915;50.832;4.462;2022-09-25T06:53:44;12.30;99.90
23681;DHT22;62915;50.832;4.462;2022-09-25T06:56:10;12.30;99.90
23681;DHT22;62915;50.832;4.462;2022-09-25T06:58:36;12.30;99.90
23681;DHT22;62915;50.832;4.462;2022-09-25T07:01:02;12.40;99.90
23681;DHT22;62915;50.832;4.462;2022-09-25T07:03:29;12.40;99.90
23681;DHT22;62915;50.832;4.462;2022-09-25T07:06:22;12.40;99.90
23681;DHT22;62915;50.832;4.462;2022-09-25T07:08:48;12.50;99.90
23681;DHT22;62915;50.832;4.462;2022-09-25T07:11:17;12.50;99.90
23681;DHT22;62915;50.832;4.462;2022-09-25T07:13:43;12.60;99.90
23681;DHT22;62915;50.832;4.462;2022-09-25T07:16:14;12.60;99.90
23681;DHT22;62915;50.832;4.462;2022-09-25T07:18:40;12.80;99.90
23681;DHT22;62915;50.832;4.462;2022-09-25T07:21:09;12.80;99.90
23681;DHT22;62915;50.832;4.462;2022-09-25T07:23:37;12.90;99.90
23681;DHT22;62915;50.832;4.462;2022-09-25T07:26:07;13.00;99.90
23681;DHT22;62915;50.832;4.462;2022-09-25T07:28:34;13.10;99.90
23681;DHT22;62915;50.832;4.462;2022-09-25T07:31:09;13.10;99.90
23681;DHT22;62915;50.832;4.462;2022-09-25T07:33:35;13.10;99.90
23681;DHT22;62915;50.832;4.462;2022-09-25T07:36:01;13.20;99.90
23681;DHT22;62915;50.832;4.462;2022-09-25T07:38:27;13.20;99.90
23681;DHT22;62915;50.832;4.462;2022-09-25T07:40:52;13.30;99.90
23681;DHT22;62915;50.832;4.462;2022-09-25T07:43:18;13.30;99.90
23681;DHT22;62915;50.832;4.462;2022-09-25T07:45:53;13.30;99.90
23681;DHT22;62915;50.832;4.462;2022-09-25T07:48:20;13.40;99.90
23681;DHT22;62915;50.832;4.462;2022-09-25T07:50:48;13.40;99.90
23681;DHT22;62915;50.832;4.462;2022-09-25T07:53:16;13.50;99.90
23681;DHT22;62915;50.832;4.462;2022-09-25T07:55:46;13.50;99.90
23681;DHT22;62915;50.832;4.462;2022-09-25T07:58:13;13.60;99.90
23681;DHT22;62915;50.832;4.462;2022-09-25T08:00:39;13.70;99.90
23681;DHT22;62915;50.832;4.462;2022-09-25T08:03:08;13.70;99.90
23681;DHT22;62915;50.832;4.462;2022-09-25T08:05:35;13.70;99.90
23681;DHT22;62915;50.832;4.462;2022-09-25T08:08:02;13.70;99.90
23681;DHT22;62915;50.832;4.462;2022-09-25T08:10:28;13.70;99.90
23681;DHT22;62915;50.832;4.462;2022-09-25T08:12:54;13.70;99.90
23681;DHT22;62915;50.832;4.462;2022-09-25T08:15:20;13.80;99.90
23681;DHT22;62915;50.832;4.462;2022-09-25T08:17:46;13.90;99.90
23681;DHT22;62915;50.832;4.462;2022-09-25T08:20:12;13.90;99.90
23681;DHT22;62915;50.832;4.462;2022-09-25T08:22:37;14.00;99.90
23681;DHT22;62915;50.832;4.462;2022-09-25T08:25:03;14.00;99.90
23681;DHT22;62915;50.832;4.462;2022-09-25T08:27:30;14.00;99.90
23681;DHT22;62915;50.832;4.462;2022-09-25T08:29:55;14.10;99.90
23681;DHT22;62915;50.832;4.462;2022-09-25T08:32:21;14.10;99.90
23681;DHT22;62915;50.832;4.462;2022-09-25T08:34:47;14.10;99.90
23681;DHT22;62915;50.832;4.462;2022-09-25T08:37:13;14.20;99.90
23681;DHT22;62915;50.832;4.462;2022-09-25T08:39:40;14.20;99.90
23681;DHT22;62915;50.832;4.462;2022-09-25T08:42:05;14.30;99.90
23681;DHT22;62915;50.832;4.462;2022-09-25T08:44:40;14.40;99.90
23681;DHT22;62915;50.832;4.462;2022-09-25T08:47:21;14.40;99.90
23681;DHT22;62915;50.832;4.462;2022-09-25T08:50:13;14.50;99.90
23681;DHT22;62915;50.832;4.462;2022-09-25T08:52:45;14.50;99.90
23681;DHT22;62915;50.832;4.462;2022-09-25T08:55:27;14.60;99.90
23681;DHT22;62915;50.832;4.462;2022-09-25T08:58:31;14.60;99.90
23681;DHT22;62915;50.832;4.462;2022-09-25T09:01:02;14.70;99.90
23681;DHT22;62915;50.832;4.462;2022-09-25T09:03:31;14.90;99.90
23681;DHT22;62915;50.832;4.462;2022-09-25T09:06:01;15.10;99.90
23681;DHT22;62915;50.832;4.462;2022-09-25T09:08:29;15.30;99.90
23681;DHT22;62915;50.832;4.462;2022-09-25T09:11:04;15.40;99.90
23681;DHT22;62915;50.832;4.462;2022-09-25T09:13:56;15.60;99.90
23681;DHT22;62915;50.832;4.462;2022-09-25T09:18:52;16.00;99.90
23681;DHT22;62915;50.832;4.462;2022-09-25T09:21:44;16.30;99.90
23681;DHT22;62915;50.832;4.462;2022-09-25T09:24:16;16.70;99.90
23681;DHT22;62915;50.832;4.462;2022-09-25T09:26:59;17.00;99.90
23681;DHT22;62915;50.832;4.462;2022-09-25T09:30:17;17.30;99.90
23681;DHT22;62915;50.832;4.462;2022-09-25T09:33:05;17.60;99.90
23681;DHT22;62915;50.832;4.462;2022-09-25T09:35:58;17.90;99.90
23681;DHT22;62915;50.832;4.462;2022-09-25T09:38:49;18.00;99.90
23681;DHT22;62915;50.832;4.462;2022-09-25T09:41:45;18.30;99.90
23681;DHT22;62915;50.832;4.462;2022-09-25T09:47:16;18.50;99.90
23681;DHT22;62915;50.832;4.462;2022-09-25T09:50:16;18.40;99.90
23681;DHT22;62915;50.832;4.462;2022-09-25T09:52:44;18.60;99.90
23681;DHT22;62915;50.832;4.462;2022-09-25T09:55:25;18.60;99.90
23681;DHT22;62915;50.832;4.462;2022-09-25T09:58:01;18.60;99.90
23681;DHT22;62915;50.832;4.462;2022-09-25T10:00:30;18.70;99.90
23681;DHT22;62915;50.832;4.462;2022-09-25T10:03:09;19.10;99.90
23681;DHT22;62915;50.832;4.462;2022-09-25T10:05:47;19.10;99.90
23681;DHT22;62915;50.832;4.462;2022-09-25T10:08:14;19.10;99.90
23681;DHT22;62915;50.832;4.462;2022-09-25T10:10:48;19.10;99.90
23681;DHT22;62915;50.832;4.462;2022-09-25T10:13:25;19.20;99.90
23681;DHT22;62915;50.832;4.462;2022-09-25T10:16:13;19.10;99.90
23681;DHT22;62915;50.832;4.462;2022-09-25T10:18:48;19.30;99.90
23681;DHT22;62915;50.832;4.462;2022-09-25T10:21:18;19.70;99.90
23681;DHT22;62915;50.832;4.462;2022-09-25T10:23:46;19.60;99.90
23681;DHT22;62915;50.832;4.462;2022-09-25T10:26:36;19.40;99.90
23681;DHT22;62915;50.832;4.462;2022-09-25T10:31:47;18.80;99.90
23681;DHT22;62915;50.832;4.462;2022-09-25T10:34:21;18.90;99.90
23681;DHT22;62915;50.832;4.462;2022-09-25T10:36:52;19.10;99.90
23681;DHT22;62915;50.832;4.462;2022-09-25T10:39:37;19.30;99.90
23681;DHT22;62915;50.832;4.462;2022-09-25T10:42:38;19.50;99.90
23681;DHT22;62915;50.832;4.462;2022-09-25T10:45:34;19.90;99.90
23681;DHT22;62915;50.832;4.462;2022-09-25T10:48:01;20.00;99.90
23681;DHT22;62915;50.832;4.462;2022-09-25T10:51:09;20.10;99.90
23681;DHT22;62915;50.832;4.462;2022-09-25T10:53:35;19.90;99.90
23681;DHT22;62915;50.832;4.462;2022-09-25T10:56:09;19.60;99.90
23681;DHT22;62915;50.832;4.462;2022-09-25T10:58:42;19.30;99.90
23681;DHT22;62915;50.832;4.462;2022-09-25T11:01:09;19.10;99.90
23681;DHT22;62915;50.832;4.462;2022-09-25T11:08:46;18.60;99.90
23681;DHT22;62915;50.832;4.462;2022-09-25T11:11:22;18.50;99.90
23681;DHT22;62915;50.832;4.462;2022-09-25T11:13:57;18.30;99.90
23681;DHT22;62915;50.832;4.462;2022-09-25T11:16:53;18.10;99.90
23681;DHT22;62915;50.832;4.462;2022-09-25T11:21:56;18.00;99.90
23681;DHT22;62915;50.832;4.462;2022-09-25T11:38:30;17.90;99.90
23681;DHT22;62915;50.832;4.462;2022-09-25T11:41:39;18.00;99.90
23681;DHT22;62915;50.832;4.462;2022-09-25T11:47:07;18.10;99.90
23681;DHT22;62915;50.832;4.462;2022-09-25T11:49:38;18.10;99.90
23681;DHT22;62915;50.832;4.462;2022-09-25T12:22:14;21.10;99.90
23681;DHT22;62915;50.832;4.462;2022-09-25T12:25:03;21.10;99.90
23681;DHT22;62915;50.832;4.462;2022-09-25T12:30:21;21.20;99.90
23681;DHT22;62915;50.832;4.462;2022-09-25T12:33:40;21.30;99.90
23681;DHT22;62915;50.832;4.462;2022-09-25T12:36:31;21.20;99.90
23681;DHT22;62915;50.832;4.462;2022-09-25T12:38:53;21.40;99.90
23681;DHT22;62915;50.832;4.462;2022-09-25T12:41:32;21.40;99.90
23681;DHT22;62915;50.832;4.462;2022-09-25T12:44:11;21.50;99.90
23681;DHT22;62915;50.832;4.462;2022-09-25T12:49:46;21.40;99.90
23681;DHT22;62915;50.832;4.462;2022-09-25T12:52:19;21.40;99.90
23681;DHT22;62915;50.832;4.462;2022-09-25T12:57:18;20.90;99.90
23681;DHT22;62915;50.832;4.462;2022-09-25T12:59:50;20.70;99.90
23681;DHT22;62915;50.832;4.462;2022-09-25T13:02:42;20.80;99.90
23681;DHT22;62915;50.832;4.462;2022-09-25T13:07:59;21.00;99.90
23681;DHT22;62915;50.832;4.462;2022-09-25T13:13:18;21.20;99.90
23681;DHT22;62915;50.832;4.462;2022-09-25T13:15:50;21.10;99.90
23681;DHT22;62915;50.832;4.462;2022-09-25T13:18:22;21.10;99.90
23681;DHT22;62915;50.832;4.462;2022-09-25T13:20:49;21.20;99.90
23681;DHT22;62915;50.832;4.462;2022-09-25T13:23:38;21.10;99.90
23681;DHT22;62915;50.832;4.462;2022-09-25T13:26:12;21.20;99.90
23681;DHT22;62915;50.832;4.462;2022-09-25T13:29:02;21.30;99.90
23681;DHT22;62915;50.832;4.462;2022-09-25T13:31:31;21.20;99.90
23681;DHT22;62915;50.832;4.462;2022-09-25T13:34:04;21.00;99.90
23681;DHT22;62915;50.832;4.462;2022-09-25T13:36:46;21.00;99.90
23681;DHT22;62915;50.832;4.462;2022-09-25T13:39:39;21.00;99.90
23681;DHT22;62915;50.832;4.462;2022-09-25T13:42:50;21.10;99.90
23681;DHT22;62915;50.832;4.462;2022-09-25T13:45:33;21.20;99.90
23681;DHT22;62915;50.832;4.462;2022-09-25T13:48:11;21.00;99.90
23681;DHT22;62915;50.832;4.462;2022-09-25T13:50:42;20.70;99.90
23681;DHT22;62915;50.832;4.462;2022-09-25T13:58:25;20.20;99.90
23681;DHT22;62915;50.832;4.462;2022-09-25T14:00:55;20.20;99.90
23681;DHT22;62915;50.832;4.462;2022-09-25T14:03:44;20.10;99.90
23681;DHT22;62915;50.832;4.462;2022-09-25T14:06:31;20.00;99.90
23681;DHT22;62915;50.832;4.462;2022-09-25T14:08:59;19.90;99.90
23681;DHT22;62915;50.832;4.462;2022-09-25T14:11:29;19.90;99.90
23681;DHT22;62915;50.832;4.462;2022-09-25T14:13:58;19.80;99.90
23681;DHT22;62915;50.832;4.462;2022-09-25T14:16:37;19.80;99.90
23681;DHT22;62915;50.832;4.462;2022-09-25T14:19:05;19.80;99.90
23681;DHT22;62915;50.832;4.462;2022-09-25T14:21:33;19.90;99.90
23681;DHT22;62915;50.832;4.462;2022-09-25T14:24:21;19.80;99.90
23681;DHT22;62915;50.832;4.462;2022-09-25T14:26:49;19.80;99.90
23681;DHT22;62915;50.832;4.462;2022-09-25T14:29:23;19.80;99.90
23681;DHT22;62915;50.832;4.462;2022-09-25T14:47:20;19.30;99.90
23681;DHT22;62915;50.832;4.462;2022-09-25T14:49:50;19.40;99.90
23681;DHT22;62915;50.832;4.462;2022-09-25T14:52:23;19.50;99.90
23681;DHT22;62915;50.832;4.462;2022-09-25T14:54:51;19.50;99.90
23681;DHT22;62915;50.832;4.462;2022-09-25T14:57:23;19.50;99.90
23681;DHT22;62915;50.832;4.462;2022-09-25T14:59:55;19.30;99.90
23681;DHT22;62915;50.832;4.462;2022-09-25T15:02:26;19.40;99.90
23681;DHT22;62915;50.832;4.462;2022-09-25T15:04:57;19.40;99.90
23681;DHT22;62915;50.832;4.462;2022-09-25T15:07:24;19.30;99.90
23681;DHT22;62915;50.832;4.462;2022-09-25T15:09:52;19.20;99.90
23681;DHT22;62915;50.832;4.462;2022-09-25T15:12:28;19.20;99.90
23681;DHT22;62915;50.832;4.462;2022-09-25T15:17:26;19.20;99.90
23681;DHT22;62915;50.832;4.462;2022-09-25T15:19:54;19.10;99.90
23681;DHT22;62915;50.832;4.462;2022-09-25T15:22:23;19.00;99.90
23681;DHT22;62915;50.832;4.462;2022-09-25T15:24:53;19.00;99.90
23681;DHT22;62915;50.832;4.462;2022-09-25T15:27:20;19.10;99.90
23681;DHT22;62915;50.832;4.462;2022-09-25T15:29:47;19.20;99.90
23681;DHT22;62915;50.832;4.462;2022-09-25T15:35:17;19.20;99.90
23681;DHT22;62915;50.832;4.462;2022-09-25T15:37:45;19.20;99.90
23681;DHT22;62915;50.832;4.462;2022-09-25T15:42:43;19.10;99.90
23681;DHT22;62915;50.832;4.462;2022-09-25T15:47:59;19.20;99.90
23681;DHT22;62915;50.832;4.462;2022-09-25T15:50:27;19.10;99.90
23681;DHT22;62915;50.832;4.462;2022-09-25T15:52:58;19.00;99.90
23681;DHT22;62915;50.832;4.462;2022-09-25T15:55:27;19.00;99.90
23681;DHT22;62915;50.832;4.462;2022-09-25T15:57:54;19.00;99.90
23681;DHT22;62915;50.832;4.462;2022-09-25T16:00:28;19.00;99.90
23681;DHT22;62915;50.832;4.462;2022-09-25T16:03:18;19.00;99.90
23681;DHT22;62915;50.832;4.462;2022-09-25T16:06:03;19.00;99.90
23681;DHT22;62915;50.832;4.462;2022-09-25T16:13:52;19.00;99.90
23681;DHT22;62915;50.832;4.462;2022-09-25T16:16:26;19.10;99.90
23681;DHT22;62915;50.832;4.462;2022-09-25T16:18:57;19.20;99.90
23681;DHT22;62915;50.832;4.462;2022-09-25T16:21:37;19.20;99.90
23681;DHT22;62915;50.832;4.462;2022-09-25T16:24:05;19.20;99.90
23681;DHT22;62915;50.832;4.462;2022-09-25T16:26:39;19.20;99.90
23681;DHT22;62915;50.832;4.462;2022-09-25T16:31:42;19.10;99.90
23681;DHT22;62915;50.832;4.462;2022-09-25T16:34:22;19.00;99.90
23681;DHT22;62915;50.832;4.462;2022-09-25T16:36:52;19.00;99.90
23681;DHT22;62915;50.832;4.462;2022-09-25T16:39:32;18.90;99.90
23681;DHT22;62915;50.832;4.462;2022-09-25T16:42:30;18.90;99.90
23681;DHT22;62915;50.832;4.462;2022-09-25T16:47:42;18.80;99.90
23681;DHT22;62915;50.832;4.462;2022-09-25T16:50:09;18.70;99.90
23681;DHT22;62915;50.832;4.462;2022-09-25T16:52:35;18.50;99.90
23681;DHT22;62915;50.832;4.462;2022-09-25T16:55:04;18.50;99.90
23681;DHT22;62915;50.832;4.462;2022-09-25T16:57:33;18.50;99.90
23681;DHT22;62915;50.832;4.462;2022-09-25T17:00:00;18.50;99.90
23681;DHT22;62915;50.832;4.462;2022-09-25T17:02:34;18.50;99.90
23681;DHT22;62915;50.832;4.462;2022-09-25T17:05:09;18.40;99.90
23681;DHT22;62915;50.832;4.462;2022-09-25T17:07:36;18.30;99.90
23681;DHT22;62915;50.832;4.462;2022-09-25T17:10:01;18.30;99.90
23681;DHT22;62915;50.832;4.462;2022-09-25T17:12:28;18.30;99.90
23681;DHT22;62915;50.832;4.462;2022-09-25T17:14:55;18.30;99.90
23681;DHT22;62915;50.832;4.462;2022-09-25T17:17:21;18.20;99.90
23681;DHT22;62915;50.832;4.462;2022-09-25T17:19:48;18.00;99.90
23681;DHT22;62915;50.832;4.462;2022-09-25T17:22:14;18.00;99.90
23681;DHT22;62915;50.832;4.462;2022-09-25T17:24:40;18.00;99.90
23681;DHT22;62915;50.832;4.462;2022-09-25T17:27:13;18.00;99.90
23681;DHT22;62915;50.832;4.462;2022-09-25T17:29:40;18.00;99.90
23681;DHT22;62915;50.832;4.462;2022-09-25T17:32:11;18.00;99.90
23681;DHT22;62915;50.832;4.462;2022-09-25T17:34:37;18.00;99.90
23681;DHT22;62915;50.832;4.462;2022-09-25T17:37:02;17.90;99.90
23681;DHT22;62915;50.832;4.462;2022-09-25T17:39:28;17.90;99.90
23681;DHT22;62915;50.832;4.462;2022-09-25T17:41:54;17.90;99.90
23681;DHT22;62915;50.832;4.462;2022-09-25T17:44:20;17.90;99.90
23681;DHT22;62915;50.832;4.462;2022-09-25T17:46:52;17.90;99.90
23681;DHT22;62915;50.832;4.462;2022-09-25T17:49:20;17.90;99.90
23681;DHT22;62915;50.832;4.462;2022-09-25T17:51:46;17.90;99.90
23681;DHT22;62915;50.832;4.462;2022-09-25T17:54:12;17.80;99.90
23681;DHT22;62915;50.832;4.462;2022-09-25T17:56:38;17.80;99.90
23681;DHT22;62915;50.832;4.462;2022-09-25T17:59:04;17.70;99.90
23681;DHT22;62915;50.832;4.462;2022-09-25T18:01:32;17.70;99.90
23681;DHT22;62915;50.832;4.462;2022-09-25T18:04:00;17.70;99.90
23681;DHT22;62915;50.832;4.462;2022-09-25T18:06:27;17.70;99.90
23681;DHT22;62915;50.832;4.462;2022-09-25T18:08:53;17.60;99.90
23681;DHT22;62915;50.832;4.462;2022-09-25T18:11:22;17.60;99.90
23681;DHT22;62915;50.832;4.462;2022-09-25T18:13:55;17.60;99.90
23681;DHT22;62915;50.832;4.462;2022-09-25T18:16:28;17.60;99.90
23681;DHT22;62915;50.832;4.462;2022-09-25T18:18:54;17.50;99.90
23681;DHT22;62915;50.832;4.462;2022-09-25T18:21:38;17.40;99.90